AKDT,Max TemperatureF,Mean TemperatureF,Min TemperatureF,Max Dew PointF,MeanDew PointF,Min DewpointF,Max Humidity, Mean Humidity, Min Humidity, Max Sea Level PressureIn, Mean Sea Level PressureIn, Min Sea Level PressureIn, Max VisibilityMiles, Mean VisibilityMiles, Min VisibilityMiles, Max Wind SpeedMPH, Mean Wind SpeedMPH, Max Gust SpeedMPH,PrecipitationIn, CloudCover, Events, WindDirDegrees
2013-3-1,40,37,34,37,34,32,100,93,85,29.98,29.92,29.84,10,9,7,30,17,36,0.24,8,Rain,111
2013-3-2,40,33,26,36,31,25,100,88,76,30.20,30.03,29.96,10,8,0,12,2,13,0.00,6,Fog,222
2013-3-3,39,32,25,32,28,24,100,88,76,30.48,30.38,30.22,10,10,10,12,2,15,0.00,5,,232
2013-3-4,42,32,22,27,24,21,100,73,45,30.49,30.41,30.30,10,10,10,10,2,12,0.00,1,,230
2013-3-5,37,28,19,23,19,17,96,70,44,30.29,30.11,29.99,10,10,10,9,2,12,0.00,0,,245
2013-3-6,38,28,18,25,21,17,92,72,52,29.99,29.97,29.94,10,10,10,13,3,14,0.00,0,,237
2013-3-7,41,30,19,25,21,17,100,70,40,30.07,30.03,29.99,10,10,10,15,4,17,0.00,4,,106
2013-3-8,41,33,24,33,27,21,92,73,54,30.14,30.10,30.06,10,10,9,20,10,24,0.09,7,Rain,106
2013-3-9,36,34,32,34,33,32,100,96,92,30.14,30.05,29.97,10,7,2,20,12,23,0.52,8,Rain-Snow,91
2013-3-10,39,36,33,33,32,30,96,89,82,30.31,30.28,30.17,10,10,10,14,9,19,0.01,7,Rain-Snow,89
2013-3-11,36,34,32,33,32,31,96,93,89,30.30,30.14,30.02,10,8,4,24,13,29,0.27,8,Rain-Snow,100
2013-3-12,33,30,27,32,18,8,100,70,39,30.01,29.90,29.84,10,8,2,28,11,36,T,7,Snow,72
2013-3-13,27,25,22,11,6,2,59,46,33,30.02,29.95,29.86,10,10,10,23,10,33,0.00,6,,96
2013-3-14,29,24,18,14,9,5,73,56,38,30.04,29.98,29.92,10,10,10,21,7,28,0.00,3,,112
2013-3-15,26,24,21,20,16,8,92,71,50,30.02,29.97,29.92,10,4,0,15,6,20,0.21,8,Fog-Snow,100
2013-3-16,30,23,16,25,20,16,100,82,63,30.04,30.01,29.98,10,8,2,12,3,14,0.02,7,Snow,315
2013-3-17,28,24,19,24,13,5,92,65,38,30.09,30.06,30.02,10,9,5,14,5,17,T,8,Snow,106
2013-3-18,28,20,11,24,19,8,100,75,50,30.02,29.95,29.84,10,6,1,20,4,22,0.05,6,Snow,112
2013-3-19,30,22,13,27,24,13,100,94,88,29.83,29.71,29.65,10,4,0,8,2,9,0.19,7,Fog-Snow,242
2013-3-20,28,19,9,18,10,5,96,67,38,29.82,29.68,29.63,10,9,1,15,3,18,0.00,2,Fog,112
2013-3-21,30,20,10,16,11,7,96,72,31,30.34,30.09,29.84,10,10,10,9,1,,0.00,3,,280
2013-3-22,32,20,8,20,14,6,91,73,54,30.39,30.36,30.31,10,10,10,14,4,15,0.00,5,Fog,104
2013-3-23,37,29,21,28,23,18,92,74,56,30.30,30.23,30.15,10,10,10,23,9,28,T,8,Snow,111
2013-3-24,41,36,31,33,30,27,85,80,75,30.14,30.02,29.85,10,10,9,10,3,12,T,8,Rain-Snow,234
2013-3-25,41,39,36,38,35,32,92,89,85,29.85,29.77,29.70,10,9,4,25,13,32,0.31,8,Rain,113
2013-3-26,40,37,33,33,26,21,82,68,54,30.16,30.03,29.86,10,9,2,18,7,23,0.02,7,Rain-Snow,219
2013-3-27,40,34,27,27,23,19,85,65,44,30.22,30.18,30.16,10,10,10,12,3,15,T,8,,274
2013-3-28,40,34,27,26,24,18,92,66,40,30.25,30.22,30.21,10,10,10,13,3,14,0.00,7,,249
2013-3-29,43,36,28,31,25,24,92,71,49,30.31,30.29,30.25,10,10,8,20,5,24,0.04,8,Rain,129
2013-3-30,40,37,33,37,35,31,100,93,85,30.37,30.31,30.25,10,7,4,21,14,26,0.36,8,Rain-Snow,101
2013-3-31,42,38,34,38,35,33,100,93,85,30.38,30.26,30.06,10,7,1,14,5,16,T,8,Rain,248